Terminal Aerodrome Forecast
Issued by NWS

Home | Current Version | Previous Version | Text Only | Print | Product List | Glossary On
Versions: 1 2 3 4 5 6 7 8 9 10 11 12 13 14 15
000
FTUS42 KTBW 251133
TAFPGD
TAF
KPGD 251133Z 2512/2612 22017KT P6SM VCTS SCT020CB BKN040
      TEMPO 2512/2514 3SM -SHRA BR BKN020 OVC040
     FM251400 24018G25KT P6SM SCT020 BKN040
     FM252000 26014KT P6SM SCT030 BKN060
     FM252300 28009KT P6SM SCT250
     FM260200 VRB05KT P6SM FEW250
     FM260900 07004KT P6SM FEW025 FEW250=

USA.gov is the U.S. government's official web portal to all federal, state and local government web resources and services.